sensor_id;sensor_type;location;lat;lon;timestamp;P1;durP1;ratioP1;P2;durP2;ratioP2
43809;SDS011;29440;48.208;11.162;2022-11-03T00:04:03;14.93;;;5.38;;
43809;SDS011;29440;48.208;11.162;2022-11-03T00:06:29;12.27;;;5.28;;
43809;SDS011;29440;48.208;11.162;2022-11-03T00:08:58;11.52;;;5.55;;
43809;SDS011;29440;48.208;11.162;2022-11-03T00:11:25;14.18;;;5.05;;
43809;SDS011;29440;48.208;11.162;2022-11-03T00:13:51;12.68;;;5.07;;
43809;SDS011;29440;48.208;11.162;2022-11-03T00:16:17;9.85;;;4.45;;
43809;SDS011;29440;48.208;11.162;2022-11-03T00:18:43;10.48;;;4.47;;
43809;SDS011;29440;48.208;11.162;2022-11-03T00:21:10;7.07;;;4.00;;
43809;SDS011;29440;48.208;11.162;2022-11-03T00:23:38;9.02;;;4.40;;
43809;SDS011;29440;48.208;11.162;2022-11-03T00:28:33;10.68;;;4.97;;
43809;SDS011;29440;48.208;11.162;2022-11-03T00:31:00;12.32;;;4.63;;
43809;SDS011;29440;48.208;11.162;2022-11-03T00:33:29;8.82;;;4.90;;
43809;SDS011;29440;48.208;11.162;2022-11-03T00:36:00;9.73;;;4.32;;
43809;SDS011;29440;48.208;11.162;2022-11-03T00:38:27;7.38;;;3.72;;
43809;SDS011;29440;48.208;11.162;2022-11-03T00:40:57;6.70;;;4.00;;
43809;SDS011;29440;48.208;11.162;2022-11-03T00:43:25;6.10;;;3.80;;
43809;SDS011;29440;48.208;11.162;2022-11-03T00:45:52;9.07;;;4.05;;
43809;SDS011;29440;48.208;11.162;2022-11-03T00:48:18;6.50;;;4.00;;
43809;SDS011;29440;48.208;11.162;2022-11-03T00:56:24;8.20;;;4.45;;
43809;SDS011;29440;48.208;11.162;2022-11-03T00:59:08;7.82;;;3.88;;
43809;SDS011;29440;48.208;11.162;2022-11-03T01:01:35;7.93;;;4.63;;
43809;SDS011;29440;48.208;11.162;2022-11-03T01:04:06;6.85;;;3.90;;
43809;SDS011;29440;48.208;11.162;2022-11-03T01:06:52;9.95;;;4.03;;
43809;SDS011;29440;48.208;11.162;2022-11-03T01:09:29;8.80;;;3.80;;
43809;SDS011;29440;48.208;11.162;2022-11-03T01:12:08;6.40;;;3.85;;
43809;SDS011;29440;48.208;11.162;2022-11-03T01:17:29;5.97;;;3.10;;
43809;SDS011;29440;48.208;11.162;2022-11-03T01:19:54;6.60;;;3.77;;
43809;SDS011;29440;48.208;11.162;2022-11-03T01:22:21;5.22;;;3.42;;
43809;SDS011;29440;48.208;11.162;2022-11-03T01:24:47;6.28;;;3.67;;
43809;SDS011;29440;48.208;11.162;2022-11-03T01:27:14;8.00;;;3.67;;
43809;SDS011;29440;48.208;11.162;2022-11-03T01:29:40;7.18;;;3.53;;
43809;SDS011;29440;48.208;11.162;2022-11-03T01:32:06;7.07;;;3.83;;
43809;SDS011;29440;48.208;11.162;2022-11-03T01:34:32;7.38;;;3.55;;
43809;SDS011;29440;48.208;11.162;2022-11-03T01:36:58;9.57;;;4.00;;
43809;SDS011;29440;48.208;11.162;2022-11-03T01:39:24;9.23;;;4.63;;
43809;SDS011;29440;48.208;11.162;2022-11-03T01:41:50;7.45;;;4.30;;
43809;SDS011;29440;48.208;11.162;2022-11-03T01:46:50;7.20;;;3.95;;
43809;SDS011;29440;48.208;11.162;2022-11-03T01:49:19;8.88;;;3.63;;
43809;SDS011;29440;48.208;11.162;2022-11-03T01:52:24;7.43;;;3.17;;
43809;SDS011;29440;48.208;11.162;2022-11-03T01:55:02;7.57;;;3.60;;
43809;SDS011;29440;48.208;11.162;2022-11-03T02:00:26;6.00;;;3.65;;
43809;SDS011;29440;48.208;11.162;2022-11-03T02:02:52;6.70;;;3.72;;
43809;SDS011;29440;48.208;11.162;2022-11-03T02:05:18;12.93;;;4.30;;
43809;SDS011;29440;48.208;11.162;2022-11-03T02:07:58;17.52;;;5.80;;
43809;SDS011;29440;48.208;11.162;2022-11-03T02:10:47;15.43;;;5.50;;
43809;SDS011;29440;48.208;11.162;2022-11-03T02:13:20;11.73;;;4.90;;
43809;SDS011;29440;48.208;11.162;2022-11-03T02:15:48;14.05;;;5.13;;
43809;SDS011;29440;48.208;11.162;2022-11-03T02:18:18;13.43;;;4.68;;
43809;SDS011;29440;48.208;11.162;2022-11-03T02:20:48;11.30;;;4.03;;
43809;SDS011;29440;48.208;11.162;2022-11-03T02:26:01;5.43;;;3.10;;
43809;SDS011;29440;48.208;11.162;2022-11-03T02:28:28;5.88;;;2.95;;
43809;SDS011;29440;48.208;11.162;2022-11-03T02:31:15;4.57;;;2.45;;
43809;SDS011;29440;48.208;11.162;2022-11-03T02:39:04;8.18;;;3.60;;
43809;SDS011;29440;48.208;11.162;2022-11-03T02:41:34;7.88;;;3.63;;
43809;SDS011;29440;48.208;11.162;2022-11-03T02:44:02;7.13;;;4.55;;
43809;SDS011;29440;48.208;11.162;2022-11-03T02:46:31;12.68;;;4.25;;
43809;SDS011;29440;48.208;11.162;2022-11-03T02:48:58;15.88;;;4.57;;
43809;SDS011;29440;48.208;11.162;2022-11-03T02:51:24;44.00;;;5.30;;
43809;SDS011;29440;48.208;11.162;2022-11-03T02:54:05;19.88;;;5.03;;
43809;SDS011;29440;48.208;11.162;2022-11-03T02:56:36;12.60;;;5.22;;
43809;SDS011;29440;48.208;11.162;2022-11-03T02:59:08;11.07;;;5.30;;
43809;SDS011;29440;48.208;11.162;2022-11-03T03:01:40;9.05;;;4.85;;
43809;SDS011;29440;48.208;11.162;2022-11-03T03:04:16;15.07;;;4.47;;
43809;SDS011;29440;48.208;11.162;2022-11-03T03:06:49;11.50;;;4.30;;
43809;SDS011;29440;48.208;11.162;2022-11-03T03:09:23;20.92;;;4.20;;
43809;SDS011;29440;48.208;11.162;2022-11-03T03:11:53;27.67;;;4.60;;
43809;SDS011;29440;48.208;11.162;2022-11-03T03:14:23;16.85;;;4.78;;
43809;SDS011;29440;48.208;11.162;2022-11-03T03:16:58;16.47;;;4.13;;
43809;SDS011;29440;48.208;11.162;2022-11-03T03:19:43;14.27;;;3.47;;
43809;SDS011;29440;48.208;11.162;2022-11-03T03:28:09;14.85;;;4.10;;
43809;SDS011;29440;48.208;11.162;2022-11-03T03:30:40;28.15;;;4.70;;
43809;SDS011;29440;48.208;11.162;2022-11-03T03:33:07;46.72;;;4.43;;
43809;SDS011;29440;48.208;11.162;2022-11-03T03:35:34;41.88;;;4.53;;
43809;SDS011;29440;48.208;11.162;2022-11-03T03:38:04;9.35;;;4.18;;
43809;SDS011;29440;48.208;11.162;2022-11-03T03:40:37;29.08;;;5.68;;
43809;SDS011;29440;48.208;11.162;2022-11-03T03:43:08;8.90;;;4.07;;
43809;SDS011;29440;48.208;11.162;2022-11-03T03:45:37;21.30;;;4.72;;
43809;SDS011;29440;48.208;11.162;2022-11-03T03:48:03;14.02;;;4.22;;
43809;SDS011;29440;48.208;11.162;2022-11-03T03:50:30;8.48;;;4.20;;
43809;SDS011;29440;48.208;11.162;2022-11-03T03:52:59;9.57;;;4.95;;
43809;SDS011;29440;48.208;11.162;2022-11-03T03:55:31;13.65;;;5.25;;
43809;SDS011;29440;48.208;11.162;2022-11-03T03:58:03;9.70;;;4.60;;
43809;SDS011;29440;48.208;11.162;2022-11-03T04:00:29;9.45;;;4.47;;
43809;SDS011;29440;48.208;11.162;2022-11-03T04:02:55;21.42;;;4.57;;
43809;SDS011;29440;48.208;11.162;2022-11-03T04:05:22;22.80;;;4.38;;
43809;SDS011;29440;48.208;11.162;2022-11-03T04:07:48;12.68;;;4.78;;
43809;SDS011;29440;48.208;11.162;2022-11-03T04:10:15;12.93;;;4.32;;
43809;SDS011;29440;48.208;11.162;2022-11-03T04:12:42;8.27;;;4.15;;
43809;SDS011;29440;48.208;11.162;2022-11-03T04:15:27;14.70;;;5.82;;
43809;SDS011;29440;48.208;11.162;2022-11-03T04:18:13;20.00;;;3.75;;
43809;SDS011;29440;48.208;11.162;2022-11-03T04:23:42;20.98;;;3.65;;
43809;SDS011;29440;48.208;11.162;2022-11-03T04:26:11;9.50;;;4.03;;
43809;SDS011;29440;48.208;11.162;2022-11-03T04:28:38;7.30;;;3.40;;
43809;SDS011;29440;48.208;11.162;2022-11-03T04:31:08;8.20;;;3.53;;
43809;SDS011;29440;48.208;11.162;2022-11-03T04:33:38;11.27;;;3.72;;
43809;SDS011;29440;48.208;11.162;2022-11-03T04:38:42;8.00;;;4.20;;
43809;SDS011;29440;48.208;11.162;2022-11-03T04:41:14;11.95;;;5.60;;
43809;SDS011;29440;48.208;11.162;2022-11-03T04:43:41;11.77;;;4.28;;
43809;SDS011;29440;48.208;11.162;2022-11-03T04:46:09;17.33;;;3.70;;
43809;SDS011;29440;48.208;11.162;2022-11-03T04:48:36;47.15;;;5.45;;
43809;SDS011;29440;48.208;11.162;2022-11-03T04:51:09;27.75;;;3.50;;
43809;SDS011;29440;48.208;11.162;2022-11-03T04:53:41;11.82;;;4.35;;
43809;SDS011;29440;48.208;11.162;2022-11-03T04:56:23;26.52;;;5.15;;
43809;SDS011;29440;48.208;11.162;2022-11-03T04:58:50;33.38;;;5.65;;
43809;SDS011;29440;48.208;11.162;2022-11-03T05:01:27;24.33;;;5.63;;
43809;SDS011;29440;48.208;11.162;2022-11-03T05:03:54;22.58;;;5.63;;
43809;SDS011;29440;48.208;11.162;2022-11-03T05:08:51;29.30;;;5.05;;
43809;SDS011;29440;48.208;11.162;2022-11-03T05:16:42;61.17;;;6.82;;
43809;SDS011;29440;48.208;11.162;2022-11-03T05:19:11;23.45;;;6.07;;
43809;SDS011;29440;48.208;11.162;2022-11-03T05:21:57;22.70;;;5.43;;
43809;SDS011;29440;48.208;11.162;2022-11-03T05:24:24;42.92;;;5.80;;
43809;SDS011;29440;48.208;11.162;2022-11-03T05:26:51;49.70;;;6.88;;
43809;SDS011;29440;48.208;11.162;2022-11-03T05:29:19;34.08;;;6.28;;
43809;SDS011;29440;48.208;11.162;2022-11-03T05:31:47;36.78;;;6.10;;
43809;SDS011;29440;48.208;11.162;2022-11-03T05:34:31;24.08;;;6.03;;
43809;SDS011;29440;48.208;11.162;2022-11-03T05:39:33;18.50;;;5.80;;
43809;SDS011;29440;48.208;11.162;2022-11-03T05:42:01;10.30;;;4.63;;
43809;SDS011;29440;48.208;11.162;2022-11-03T05:44:37;10.98;;;4.60;;
43809;SDS011;29440;48.208;11.162;2022-11-03T05:47:29;27.50;;;6.45;;
43809;SDS011;29440;48.208;11.162;2022-11-03T05:49:59;22.40;;;6.05;;
43809;SDS011;29440;48.208;11.162;2022-11-03T05:52:31;22.65;;;5.30;;
43809;SDS011;29440;48.208;11.162;2022-11-03T05:54:57;29.77;;;6.45;;
43809;SDS011;29440;48.208;11.162;2022-11-03T05:57:24;8.27;;;5.00;;
43809;SDS011;29440;48.208;11.162;2022-11-03T05:59:52;19.58;;;6.40;;
43809;SDS011;29440;48.208;11.162;2022-11-03T06:04:56;17.10;;;5.70;;
43809;SDS011;29440;48.208;11.162;2022-11-03T06:07:23;19.98;;;6.07;;
43809;SDS011;29440;48.208;11.162;2022-11-03T06:09:51;17.25;;;6.03;;
43809;SDS011;29440;48.208;11.162;2022-11-03T06:12:18;29.23;;;6.43;;
43809;SDS011;29440;48.208;11.162;2022-11-03T06:14:45;9.40;;;5.38;;
43809;SDS011;29440;48.208;11.162;2022-11-03T06:17:17;23.70;;;6.53;;
43809;SDS011;29440;48.208;11.162;2022-11-03T06:19:48;25.15;;;6.63;;
43809;SDS011;29440;48.208;11.162;2022-11-03T06:22:21;29.55;;;10.18;;
43809;SDS011;29440;48.208;11.162;2022-11-03T06:24:48;22.33;;;8.23;;
43809;SDS011;29440;48.208;11.162;2022-11-03T06:27:15;28.20;;;9.52;;
43809;SDS011;29440;48.208;11.162;2022-11-03T06:29:50;12.05;;;7.43;;
43809;SDS011;29440;48.208;11.162;2022-11-03T06:32:20;37.40;;;6.55;;
43809;SDS011;29440;48.208;11.162;2022-11-03T06:34:52;19.30;;;7.47;;
43809;SDS011;29440;48.208;11.162;2022-11-03T06:37:33;26.42;;;5.43;;
43809;SDS011;29440;48.208;11.162;2022-11-03T06:40:44;12.15;;;5.07;;
43809;SDS011;29440;48.208;11.162;2022-11-03T06:42:44;8.48;;;4.60;;
43809;SDS011;29440;48.208;11.162;2022-11-03T06:47:38;15.10;;;4.72;;
43809;SDS011;29440;48.208;11.162;2022-11-03T06:52:54;8.23;;;5.15;;
43809;SDS011;29440;48.208;11.162;2022-11-03T06:55:25;12.20;;;5.57;;
43809;SDS011;29440;48.208;11.162;2022-11-03T06:57:58;35.17;;;6.30;;
43809;SDS011;29440;48.208;11.162;2022-11-03T07:00:29;14.35;;;6.05;;
43809;SDS011;29440;48.208;11.162;2022-11-03T07:05:45;21.23;;;6.05;;
43809;SDS011;29440;48.208;11.162;2022-11-03T07:08:19;23.55;;;5.85;;
43809;SDS011;29440;48.208;11.162;2022-11-03T07:11:24;9.65;;;5.75;;
43809;SDS011;29440;48.208;11.162;2022-11-03T07:14:11;10.50;;;6.00;;
43809;SDS011;29440;48.208;11.162;2022-11-03T07:16:41;12.07;;;5.90;;
43809;SDS011;29440;48.208;11.162;2022-11-03T07:19:11;30.33;;;6.68;;
43809;SDS011;29440;48.208;11.162;2022-11-03T07:21:43;13.80;;;6.40;;
43809;SDS011;29440;48.208;11.162;2022-11-03T07:24:24;61.42;;;8.30;;
43809;SDS011;29440;48.208;11.162;2022-11-03T07:29:46;16.35;;;6.18;;
43809;SDS011;29440;48.208;11.162;2022-11-03T07:32:19;38.58;;;8.77;;
43809;SDS011;29440;48.208;11.162;2022-11-03T07:34:47;73.53;;;8.27;;
43809;SDS011;29440;48.208;11.162;2022-11-03T07:37:15;13.70;;;5.68;;
43809;SDS011;29440;48.208;11.162;2022-11-03T07:39:44;13.20;;;4.93;;
43809;SDS011;29440;48.208;11.162;2022-11-03T07:42:12;14.77;;;5.03;;
43809;SDS011;29440;48.208;11.162;2022-11-03T07:44:41;8.82;;;5.30;;
43809;SDS011;29440;48.208;11.162;2022-11-03T07:47:10;18.80;;;6.13;;
43809;SDS011;29440;48.208;11.162;2022-11-03T07:49:38;64.55;;;7.22;;
43809;SDS011;29440;48.208;11.162;2022-11-03T07:52:07;16.40;;;6.07;;
43809;SDS011;29440;48.208;11.162;2022-11-03T07:54:36;10.27;;;6.22;;
43809;SDS011;29440;48.208;11.162;2022-11-03T07:57:05;27.15;;;5.50;;
43809;SDS011;29440;48.208;11.162;2022-11-03T07:59:55;7.28;;;4.50;;
43809;SDS011;29440;48.208;11.162;2022-11-03T08:02:33;55.72;;;6.35;;
43809;SDS011;29440;48.208;11.162;2022-11-03T08:05:06;28.80;;;4.63;;
43809;SDS011;29440;48.208;11.162;2022-11-03T08:07:32;58.83;;;4.85;;
43809;SDS011;29440;48.208;11.162;2022-11-03T08:09:58;56.03;;;5.68;;
43809;SDS011;29440;48.208;11.162;2022-11-03T08:12:24;41.92;;;4.82;;
43809;SDS011;29440;48.208;11.162;2022-11-03T08:14:49;13.63;;;4.50;;
43809;SDS011;29440;48.208;11.162;2022-11-03T08:17:15;13.70;;;5.38;;
43809;SDS011;29440;48.208;11.162;2022-11-03T08:19:41;13.30;;;4.47;;
43809;SDS011;29440;48.208;11.162;2022-11-03T08:22:06;14.75;;;4.00;;
43809;SDS011;29440;48.208;11.162;2022-11-03T08:24:32;27.98;;;4.20;;
43809;SDS011;29440;48.208;11.162;2022-11-03T08:26:58;15.63;;;3.92;;
43809;SDS011;29440;48.208;11.162;2022-11-03T08:29:23;5.78;;;3.67;;
43809;SDS011;29440;48.208;11.162;2022-11-03T08:31:51;25.88;;;4.78;;
43809;SDS011;29440;48.208;11.162;2022-11-03T08:34:17;12.23;;;3.80;;
43809;SDS011;29440;48.208;11.162;2022-11-03T08:36:43;20.65;;;4.57;;
43809;SDS011;29440;48.208;11.162;2022-11-03T08:39:08;30.55;;;4.75;;
43809;SDS011;29440;48.208;11.162;2022-11-03T08:41:34;9.25;;;5.68;;
43809;SDS011;29440;48.208;11.162;2022-11-03T08:44:00;29.88;;;4.13;;
43809;SDS011;29440;48.208;11.162;2022-11-03T08:46:25;6.65;;;3.58;;
43809;SDS011;29440;48.208;11.162;2022-11-03T08:48:51;27.10;;;4.10;;
43809;SDS011;29440;48.208;11.162;2022-11-03T08:51:16;16.27;;;4.53;;
43809;SDS011;29440;48.208;11.162;2022-11-03T08:53:42;16.42;;;4.45;;
43809;SDS011;29440;48.208;11.162;2022-11-03T08:56:08;16.35;;;4.78;;
43809;SDS011;29440;48.208;11.162;2022-11-03T08:58:34;7.72;;;4.85;;
43809;SDS011;29440;48.208;11.162;2022-11-03T09:01:00;17.98;;;4.65;;
43809;SDS011;29440;48.208;11.162;2022-11-03T09:03:25;14.80;;;5.00;;
43809;SDS011;29440;48.208;11.162;2022-11-03T09:05:51;18.25;;;4.88;;
43809;SDS011;29440;48.208;11.162;2022-11-03T09:08:17;11.05;;;4.95;;
43809;SDS011;29440;48.208;11.162;2022-11-03T09:10:42;19.05;;;4.55;;
43809;SDS011;29440;48.208;11.162;2022-11-03T09:13:08;32.58;;;6.72;;
43809;SDS011;29440;48.208;11.162;2022-11-03T09:15:34;12.60;;;3.85;;
43809;SDS011;29440;48.208;11.162;2022-11-03T09:17:59;10.32;;;4.28;;
43809;SDS011;29440;48.208;11.162;2022-11-03T09:20:25;7.28;;;4.32;;
43809;SDS011;29440;48.208;11.162;2022-11-03T09:22:51;14.80;;;3.65;;
43809;SDS011;29440;48.208;11.162;2022-11-03T09:25:17;13.75;;;4.25;;
43809;SDS011;29440;48.208;11.162;2022-11-03T09:27:43;7.75;;;4.35;;
43809;SDS011;29440;48.208;11.162;2022-11-03T09:30:08;8.65;;;4.55;;
43809;SDS011;29440;48.208;11.162;2022-11-03T09:32:34;10.73;;;4.28;;
43809;SDS011;29440;48.208;11.162;2022-11-03T09:35:00;7.53;;;5.03;;
43809;SDS011;29440;48.208;11.162;2022-11-03T09:37:26;7.22;;;4.85;;
43809;SDS011;29440;48.208;11.162;2022-11-03T09:39:52;9.48;;;3.90;;
43809;SDS011;29440;48.208;11.162;2022-11-03T09:42:18;9.35;;;4.85;;
43809;SDS011;29440;48.208;11.162;2022-11-03T09:44:45;8.60;;;4.47;;
43809;SDS011;29440;48.208;11.162;2022-11-03T09:47:35;10.10;;;5.00;;
43809;SDS011;29440;48.208;11.162;2022-11-03T09:50:03;9.52;;;5.53;;
43809;SDS011;29440;48.208;11.162;2022-11-03T09:52:31;10.95;;;5.22;;
43809;SDS011;29440;48.208;11.162;2022-11-03T09:54:59;7.55;;;5.03;;
43809;SDS011;29440;48.208;11.162;2022-11-03T09:57:25;9.88;;;5.22;;
43809;SDS011;29440;48.208;11.162;2022-11-03T09:59:52;8.15;;;5.03;;
43809;SDS011;29440;48.208;11.162;2022-11-03T10:04:44;8.23;;;4.93;;
43809;SDS011;29440;48.208;11.162;2022-11-03T10:07:10;6.47;;;4.10;;
43809;SDS011;29440;48.208;11.162;2022-11-03T10:09:35;8.77;;;4.13;;
43809;SDS011;29440;48.208;11.162;2022-11-03T10:12:06;5.75;;;3.92;;
43809;SDS011;29440;48.208;11.162;2022-11-03T10:14:33;6.70;;;4.00;;
43809;SDS011;29440;48.208;11.162;2022-11-03T10:16:59;9.60;;;4.88;;
43809;SDS011;29440;48.208;11.162;2022-11-03T10:19:24;6.00;;;4.43;;
43809;SDS011;29440;48.208;11.162;2022-11-03T10:21:50;11.30;;;4.00;;
43809;SDS011;29440;48.208;11.162;2022-11-03T10:24:16;6.30;;;4.13;;
43809;SDS011;29440;48.208;11.162;2022-11-03T10:26:43;6.13;;;3.80;;
43809;SDS011;29440;48.208;11.162;2022-11-03T10:29:23;7.68;;;4.45;;
43809;SDS011;29440;48.208;11.162;2022-11-03T10:31:53;6.65;;;4.05;;
43809;SDS011;29440;48.208;11.162;2022-11-03T10:34:26;7.32;;;4.50;;
43809;SDS011;29440;48.208;11.162;2022-11-03T10:37:16;8.95;;;4.88;;
43809;SDS011;29440;48.208;11.162;2022-11-03T10:39:50;7.28;;;4.03;;
43809;SDS011;29440;48.208;11.162;2022-11-03T10:42:25;6.70;;;4.65;;
43809;SDS011;29440;48.208;11.162;2022-11-03T10:45:07;14.18;;;4.38;;
43809;SDS011;29440;48.208;11.162;2022-11-03T10:47:36;5.55;;;4.10;;
43809;SDS011;29440;48.208;11.162;2022-11-03T10:50:09;6.35;;;4.90;;
43809;SDS011;29440;48.208;11.162;2022-11-03T10:52:47;5.68;;;3.92;;
43809;SDS011;29440;48.208;11.162;2022-11-03T10:55:14;5.07;;;4.20;;
43809;SDS011;29440;48.208;11.162;2022-11-03T10:57:40;7.45;;;4.72;;
43809;SDS011;29440;48.208;11.162;2022-11-03T11:00:06;11.80;;;4.95;;
43809;SDS011;29440;48.208;11.162;2022-11-03T11:02:37;7.70;;;4.82;;
43809;SDS011;29440;48.208;11.162;2022-11-03T11:05:19;6.18;;;4.20;;
43809;SDS011;29440;48.208;11.162;2022-11-03T11:07:48;6.38;;;4.85;;
43809;SDS011;29440;48.208;11.162;2022-11-03T11:18:10;7.35;;;4.90;;
43809;SDS011;29440;48.208;11.162;2022-11-03T11:20:56;7.10;;;4.03;;
43809;SDS011;29440;48.208;11.162;2022-11-03T11:34:37;5.68;;;4.25;;
43809;SDS011;29440;48.208;11.162;2022-11-03T11:50:15;5.65;;;3.13;;
43809;SDS011;29440;48.208;11.162;2022-11-03T11:52:55;7.15;;;3.92;;
43809;SDS011;29440;48.208;11.162;2022-11-03T11:57:49;8.25;;;3.92;;
43809;SDS011;29440;48.208;11.162;2022-11-03T12:00:28;6.50;;;4.20;;
43809;SDS011;29440;48.208;11.162;2022-11-03T12:02:55;6.15;;;3.65;;
43809;SDS011;29440;48.208;11.162;2022-11-03T12:05:24;6.07;;;4.28;;
43809;SDS011;29440;48.208;11.162;2022-11-03T12:07:53;5.45;;;3.70;;
43809;SDS011;29440;48.208;11.162;2022-11-03T12:10:25;6.25;;;3.78;;
43809;SDS011;29440;48.208;11.162;2022-11-03T12:12:53;5.03;;;3.80;;
43809;SDS011;29440;48.208;11.162;2022-11-03T12:18:28;4.78;;;3.63;;
43809;SDS011;29440;48.208;11.162;2022-11-03T12:21:04;5.55;;;4.00;;
43809;SDS011;29440;48.208;11.162;2022-11-03T12:23:44;9.70;;;4.10;;
43809;SDS011;29440;48.208;11.162;2022-11-03T12:29:05;6.25;;;4.25;;
43809;SDS011;29440;48.208;11.162;2022-11-03T12:31:31;6.85;;;4.63;;
43809;SDS011;29440;48.208;11.162;2022-11-03T12:33:56;7.72;;;4.85;;
43809;SDS011;29440;48.208;11.162;2022-11-03T12:36:22;11.93;;;5.18;;
43809;SDS011;29440;48.208;11.162;2022-11-03T12:38:47;8.93;;;5.60;;
43809;SDS011;29440;48.208;11.162;2022-11-03T12:41:13;7.88;;;6.53;;
43809;SDS011;29440;48.208;11.162;2022-11-03T12:43:51;7.82;;;5.75;;
43809;SDS011;29440;48.208;11.162;2022-11-03T12:46:18;8.38;;;5.68;;
43809;SDS011;29440;48.208;11.162;2022-11-03T12:48:46;11.40;;;6.22;;
43809;SDS011;29440;48.208;11.162;2022-11-03T12:51:13;9.18;;;6.75;;
43809;SDS011;29440;48.208;11.162;2022-11-03T12:53:40;9.35;;;6.72;;
43809;SDS011;29440;48.208;11.162;2022-11-03T12:56:06;10.20;;;7.07;;
43809;SDS011;29440;48.208;11.162;2022-11-03T12:58:33;10.80;;;7.10;;
43809;SDS011;29440;48.208;11.162;2022-11-03T13:00:59;10.15;;;7.35;;
43809;SDS011;29440;48.208;11.162;2022-11-03T13:03:25;9.57;;;6.55;;
43809;SDS011;29440;48.208;11.162;2022-11-03T13:05:51;9.68;;;6.45;;
43809;SDS011;29440;48.208;11.162;2022-11-03T13:08:16;9.43;;;6.82;;
43809;SDS011;29440;48.208;11.162;2022-11-03T13:10:42;10.32;;;6.25;;
43809;SDS011;29440;48.208;11.162;2022-11-03T13:13:07;8.38;;;6.28;;
43809;SDS011;29440;48.208;11.162;2022-11-03T13:15:33;8.63;;;6.07;;
43809;SDS011;29440;48.208;11.162;2022-11-03T13:17:59;9.60;;;6.63;;
43809;SDS011;29440;48.208;11.162;2022-11-03T13:20:24;7.53;;;5.88;;
43809;SDS011;29440;48.208;11.162;2022-11-03T13:22:51;9.27;;;6.82;;
43809;SDS011;29440;48.208;11.162;2022-11-03T13:25:17;8.02;;;6.53;;
43809;SDS011;29440;48.208;11.162;2022-11-03T13:27:42;8.77;;;6.63;;
43809;SDS011;29440;48.208;11.162;2022-11-03T13:30:08;10.00;;;6.75;;
43809;SDS011;29440;48.208;11.162;2022-11-03T13:32:36;9.02;;;6.28;;
43809;SDS011;29440;48.208;11.162;2022-11-03T13:35:02;11.77;;;6.72;;
43809;SDS011;29440;48.208;11.162;2022-11-03T13:37:28;7.85;;;6.47;;
43809;SDS011;29440;48.208;11.162;2022-11-03T13:39:53;7.43;;;6.38;;
43809;SDS011;29440;48.208;11.162;2022-11-03T13:42:19;7.10;;;5.93;;
43809;SDS011;29440;48.208;11.162;2022-11-03T13:44:44;9.27;;;6.15;;
43809;SDS011;29440;48.208;11.162;2022-11-03T13:47:10;9.10;;;5.82;;
43809;SDS011;29440;48.208;11.162;2022-11-03T13:49:36;10.18;;;6.18;;
43809;SDS011;29440;48.208;11.162;2022-11-03T13:52:02;8.48;;;5.88;;
43809;SDS011;29440;48.208;11.162;2022-11-03T13:54:28;9.23;;;6.10;;
43809;SDS011;29440;48.208;11.162;2022-11-03T13:56:54;12.02;;;6.70;;
43809;SDS011;29440;48.208;11.162;2022-11-03T13:59:19;7.65;;;5.70;;
43809;SDS011;29440;48.208;11.162;2022-11-03T14:01:45;9.13;;;6.50;;
43809;SDS011;29440;48.208;11.162;2022-11-03T14:04:10;11.77;;;6.35;;
43809;SDS011;29440;48.208;11.162;2022-11-03T14:06:36;9.80;;;6.10;;
43809;SDS011;29440;48.208;11.162;2022-11-03T14:09:01;9.68;;;6.05;;
43809;SDS011;29440;48.208;11.162;2022-11-03T14:11:27;10.13;;;6.40;;
43809;SDS011;29440;48.208;11.162;2022-11-03T14:14:11;8.93;;;6.20;;
43809;SDS011;29440;48.208;11.162;2022-11-03T14:16:37;11.68;;;6.60;;
43809;SDS011;29440;48.208;11.162;2022-11-03T14:19:02;9.65;;;6.78;;
43809;SDS011;29440;48.208;11.162;2022-11-03T14:21:28;9.15;;;6.47;;
43809;SDS011;29440;48.208;11.162;2022-11-03T14:23:53;8.95;;;6.13;;
43809;SDS011;29440;48.208;11.162;2022-11-03T14:26:19;9.05;;;6.78;;
43809;SDS011;29440;48.208;11.162;2022-11-03T14:28:44;11.05;;;7.13;;
43809;SDS011;29440;48.208;11.162;2022-11-03T14:31:10;12.30;;;7.95;;
43809;SDS011;29440;48.208;11.162;2022-11-03T14:33:35;12.48;;;6.45;;
43809;SDS011;29440;48.208;11.162;2022-11-03T14:36:01;10.50;;;6.40;;
43809;SDS011;29440;48.208;11.162;2022-11-03T14:38:26;9.57;;;6.22;;
43809;SDS011;29440;48.208;11.162;2022-11-03T14:40:52;10.40;;;6.85;;
43809;SDS011;29440;48.208;11.162;2022-11-03T14:43:36;10.52;;;7.00;;
43809;SDS011;29440;48.208;11.162;2022-11-03T14:46:02;9.05;;;7.50;;
43809;SDS011;29440;48.208;11.162;2022-11-03T14:48:27;11.82;;;7.25;;
43809;SDS011;29440;48.208;11.162;2022-11-03T14:50:53;13.10;;;8.15;;
43809;SDS011;29440;48.208;11.162;2022-11-03T14:53:18;12.00;;;7.93;;
43809;SDS011;29440;48.208;11.162;2022-11-03T14:55:44;13.43;;;7.40;;
43809;SDS011;29440;48.208;11.162;2022-11-03T14:58:10;11.38;;;7.85;;
43809;SDS011;29440;48.208;11.162;2022-11-03T15:00:35;12.60;;;7.53;;
43809;SDS011;29440;48.208;11.162;2022-11-03T15:03:01;17.20;;;9.10;;
43809;SDS011;29440;48.208;11.162;2022-11-03T15:05:27;16.00;;;11.07;;
43809;SDS011;29440;48.208;11.162;2022-11-03T15:08:11;12.68;;;8.80;;
43809;SDS011;29440;48.208;11.162;2022-11-03T15:10:38;14.30;;;8.07;;
43809;SDS011;29440;48.208;11.162;2022-11-03T15:13:04;15.93;;;8.68;;
43809;SDS011;29440;48.208;11.162;2022-11-03T15:15:29;11.98;;;8.73;;
43809;SDS011;29440;48.208;11.162;2022-11-03T15:17:55;15.07;;;8.55;;
43809;SDS011;29440;48.208;11.162;2022-11-03T15:20:20;12.63;;;8.48;;
43809;SDS011;29440;48.208;11.162;2022-11-03T15:22:46;12.68;;;8.63;;
43809;SDS011;29440;48.208;11.162;2022-11-03T15:25:12;12.13;;;8.68;;
43809;SDS011;29440;48.208;11.162;2022-11-03T15:27:37;13.55;;;9.25;;
43809;SDS011;29440;48.208;11.162;2022-11-03T15:30:06;14.27;;;9.95;;
43809;SDS011;29440;48.208;11.162;2022-11-03T15:32:32;16.27;;;10.15;;
43809;SDS011;29440;48.208;11.162;2022-11-03T15:34:58;19.40;;;10.82;;
43809;SDS011;29440;48.208;11.162;2022-11-03T15:37:24;27.08;;;15.18;;
43809;SDS011;29440;48.208;11.162;2022-11-03T15:39:50;21.40;;;13.80;;
43809;SDS011;29440;48.208;11.162;2022-11-03T15:42:16;21.23;;;14.30;;
43809;SDS011;29440;48.208;11.162;2022-11-03T15:44:41;23.83;;;12.25;;
43809;SDS011;29440;48.208;11.162;2022-11-03T15:47:07;19.92;;;13.00;;
43809;SDS011;29440;48.208;11.162;2022-11-03T15:49:32;23.45;;;14.75;;
43809;SDS011;29440;48.208;11.162;2022-11-03T15:51:58;25.45;;;14.95;;
43809;SDS011;29440;48.208;11.162;2022-11-03T15:54:23;23.13;;;14.43;;
43809;SDS011;29440;48.208;11.162;2022-11-03T15:56:49;22.30;;;14.65;;
43809;SDS011;29440;48.208;11.162;2022-11-03T15:59:14;24.65;;;14.48;;
43809;SDS011;29440;48.208;11.162;2022-11-03T16:01:40;22.75;;;13.88;;
43809;SDS011;29440;48.208;11.162;2022-11-03T16:04:06;22.77;;;14.15;;
43809;SDS011;29440;48.208;11.162;2022-11-03T16:06:32;20.70;;;13.57;;
43809;SDS011;29440;48.208;11.162;2022-11-03T16:08:57;20.15;;;13.77;;
43809;SDS011;29440;48.208;11.162;2022-11-03T16:11:23;19.45;;;12.93;;
43809;SDS011;29440;48.208;11.162;2022-11-03T16:13:49;22.00;;;14.20;;
43809;SDS011;29440;48.208;11.162;2022-11-03T16:16:14;18.42;;;12.20;;
43809;SDS011;29440;48.208;11.162;2022-11-03T16:18:40;19.17;;;13.60;;
43809;SDS011;29440;48.208;11.162;2022-11-03T16:21:05;20.85;;;12.95;;
43809;SDS011;29440;48.208;11.162;2022-11-03T16:23:31;19.08;;;12.38;;